sensor_id;sensor_type;location;lat;lon;timestamp;pressure;altitude;pressure_sealevel;temperature;humidity
14117;BME280;7137;51.436;6.544;2023-05-23T00:02:39;101328.59;;;15.74;95.09
14117;BME280;7137;51.436;6.544;2023-05-23T00:05:43;101311.59;;;15.61;93.07
14117;BME280;7137;51.436;6.544;2023-05-23T00:08:47;101316.25;;;15.54;93.63
14117;BME280;7137;51.436;6.544;2023-05-23T00:11:49;101318.56;;;15.62;94.97
14117;BME280;7137;51.436;6.544;2023-05-23T00:14:51;101318.47;;;15.65;92.61
14117;BME280;7137;51.436;6.544;2023-05-23T00:17:54;101325.63;;;15.82;92.92
14117;BME280;7137;51.436;6.544;2023-05-23T00:20:57;101317.59;;;15.85;92.32
14117;BME280;7137;51.436;6.544;2023-05-23T00:23:59;101321.94;;;15.86;93.41
14117;BME280;7137;51.436;6.544;2023-05-23T00:27:01;101323.00;;;15.82;93.56
14117;BME280;7137;51.436;6.544;2023-05-23T00:30:04;101314.50;;;15.95;91.42
14117;BME280;7137;51.436;6.544;2023-05-23T00:33:05;101312.34;;;16.03;91.59
14117;BME280;7137;51.436;6.544;2023-05-23T00:36:08;101317.84;;;15.99;93.64
14117;BME280;7137;51.436;6.544;2023-05-23T00:39:10;101323.03;;;16.00;92.73
14117;BME280;7137;51.436;6.544;2023-05-23T00:42:18;101327.25;;;16.04;93.69
14117;BME280;7137;51.436;6.544;2023-05-23T00:45:19;101335.38;;;16.00;93.55
14117;BME280;7137;51.436;6.544;2023-05-23T00:48:21;101332.22;;;15.92;93.53
14117;BME280;7137;51.436;6.544;2023-05-23T00:51:24;101336.25;;;15.80;95.38
14117;BME280;7137;51.436;6.544;2023-05-23T00:54:28;101328.19;;;15.83;94.65
14117;BME280;7137;51.436;6.544;2023-05-23T00:57:31;101332.47;;;15.86;94.65
14117;BME280;7137;51.436;6.544;2023-05-23T01:00:34;101329.97;;;15.83;92.60
14117;BME280;7137;51.436;6.544;2023-05-23T01:03:37;101330.69;;;15.86;93.43
14117;BME280;7137;51.436;6.544;2023-05-23T01:06:40;101322.94;;;15.83;92.42
14117;BME280;7137;51.436;6.544;2023-05-23T01:09:46;101327.34;;;15.83;93.52
14117;BME280;7137;51.436;6.544;2023-05-23T01:12:57;101323.84;;;15.82;92.32
14117;BME280;7137;51.436;6.544;2023-05-23T01:16:06;101315.59;;;15.90;92.10
14117;BME280;7137;51.436;6.544;2023-05-23T01:19:30;101321.09;;;15.85;92.44
14117;BME280;7137;51.436;6.544;2023-05-23T01:23:19;101331.38;;;15.91;92.79
14117;BME280;7137;51.436;6.544;2023-05-23T01:26:32;101328.78;;;15.90;93.00
14117;BME280;7137;51.436;6.544;2023-05-23T01:29:41;101342.69;;;15.93;90.80
14117;BME280;7137;51.436;6.544;2023-05-23T01:32:45;101335.03;;;15.87;92.60
14117;BME280;7137;51.436;6.544;2023-05-23T01:35:47;101342.94;;;15.87;92.68
14117;BME280;7137;51.436;6.544;2023-05-23T01:38:49;101342.88;;;15.89;93.02
14117;BME280;7137;51.436;6.544;2023-05-23T01:41:51;101334.97;;;15.89;92.95
14117;BME280;7137;51.436;6.544;2023-05-23T01:44:55;101341.91;;;15.91;92.33
14117;BME280;7137;51.436;6.544;2023-05-23T01:47:59;101338.94;;;15.99;90.93
14117;BME280;7137;51.436;6.544;2023-05-23T01:51:02;101343.72;;;15.89;91.82
14117;BME280;7137;51.436;6.544;2023-05-23T01:54:04;101343.00;;;15.86;93.02
14117;BME280;7137;51.436;6.544;2023-05-23T01:57:06;101343.16;;;15.83;91.37
14117;BME280;7137;51.436;6.544;2023-05-23T02:00:10;101346.72;;;15.82;92.29
14117;BME280;7137;51.436;6.544;2023-05-23T02:03:14;101346.78;;;15.80;93.98
14117;BME280;7137;51.436;6.544;2023-05-23T02:06:16;101345.41;;;15.92;93.48
14117;BME280;7137;51.436;6.544;2023-05-23T02:09:17;101349.81;;;15.91;93.37
14117;BME280;7137;51.436;6.544;2023-05-23T02:12:19;101355.13;;;15.90;93.04
14117;BME280;7137;51.436;6.544;2023-05-23T02:15:22;101355.13;;;15.90;92.46
14117;BME280;7137;51.436;6.544;2023-05-23T02:18:24;101349.06;;;15.88;93.14
14117;BME280;7137;51.436;6.544;2023-05-23T02:21:28;101346.84;;;15.79;92.68
14117;BME280;7137;51.436;6.544;2023-05-23T02:24:30;101354.00;;;15.75;94.15
14117;BME280;7137;51.436;6.544;2023-05-23T02:27:32;101351.78;;;15.66;94.71
14117;BME280;7137;51.436;6.544;2023-05-23T02:30:35;101361.03;;;15.54;93.98
14117;BME280;7137;51.436;6.544;2023-05-23T02:33:36;101368.72;;;15.59;94.32
14117;BME280;7137;51.436;6.544;2023-05-23T02:36:38;101375.03;;;15.55;96.18
14117;BME280;7137;51.436;6.544;2023-05-23T02:39:40;101378.53;;;15.55;96.12
14117;BME280;7137;51.436;6.544;2023-05-23T02:42:41;101376.88;;;15.53;94.88
14117;BME280;7137;51.436;6.544;2023-05-23T02:45:44;101375.88;;;15.35;97.18
14117;BME280;7137;51.436;6.544;2023-05-23T02:48:46;101375.06;;;15.33;96.58
14117;BME280;7137;51.436;6.544;2023-05-23T02:51:47;101382.00;;;15.35;95.56
14117;BME280;7137;51.436;6.544;2023-05-23T02:54:49;101384.44;;;15.40;95.01
14117;BME280;7137;51.436;6.544;2023-05-23T02:57:51;101380.75;;;15.44;95.23
14117;BME280;7137;51.436;6.544;2023-05-23T03:00:53;101380.81;;;15.42;95.30
14117;BME280;7137;51.436;6.544;2023-05-23T03:03:55;101384.91;;;15.50;95.74
14117;BME280;7137;51.436;6.544;2023-05-23T03:06:56;101388.34;;;15.52;94.57
14117;BME280;7137;51.436;6.544;2023-05-23T03:09:59;101386.78;;;15.46;94.02
14117;BME280;7137;51.436;6.544;2023-05-23T03:13:00;101382.28;;;15.50;96.06
14117;BME280;7137;51.436;6.544;2023-05-23T03:16:04;101378.19;;;15.42;94.37
14117;BME280;7137;51.436;6.544;2023-05-23T03:19:05;101385.50;;;15.56;94.19
14117;BME280;7137;51.436;6.544;2023-05-23T03:22:07;101381.78;;;15.62;94.15
14117;BME280;7137;51.436;6.544;2023-05-23T03:25:08;101385.84;;;15.49;95.48
14117;BME280;7137;51.436;6.544;2023-05-23T03:28:10;101393.25;;;15.39;96.27
14117;BME280;7137;51.436;6.544;2023-05-23T03:31:13;101393.31;;;15.37;96.59
14117;BME280;7137;51.436;6.544;2023-05-23T03:34:15;101388.19;;;15.34;96.78
14117;BME280;7137;51.436;6.544;2023-05-23T03:37:17;101392.31;;;15.40;97.47
14117;BME280;7137;51.436;6.544;2023-05-23T03:40:18;101401.81;;;15.22;97.48
14117;BME280;7137;51.436;6.544;2023-05-23T03:43:20;101404.63;;;15.18;97.32
14117;BME280;7137;51.436;6.544;2023-05-23T03:46:23;101406.66;;;15.11;98.28
14117;BME280;7137;51.436;6.544;2023-05-23T03:49:24;101403.97;;;15.12;97.90
14117;BME280;7137;51.436;6.544;2023-05-23T03:52:26;101426.41;;;14.99;98.50
14117;BME280;7137;51.436;6.544;2023-05-23T03:55:27;101409.38;;;14.86;99.11
14117;BME280;7137;51.436;6.544;2023-05-23T03:58:31;101418.63;;;14.96;99.54
14117;BME280;7137;51.436;6.544;2023-05-23T04:01:33;101415.94;;;14.98;98.74
14117;BME280;7137;51.436;6.544;2023-05-23T04:04:35;101415.81;;;15.01;99.22
14117;BME280;7137;51.436;6.544;2023-05-23T04:07:38;101424.34;;;15.07;99.38
14117;BME280;7137;51.436;6.544;2023-05-23T04:10:40;101428.50;;;15.13;99.12
14117;BME280;7137;51.436;6.544;2023-05-23T04:13:42;101430.94;;;14.96;99.78
14117;BME280;7137;51.436;6.544;2023-05-23T04:16:47;101430.56;;;15.05;100.00
14117;BME280;7137;51.436;6.544;2023-05-23T04:19:49;101432.03;;;15.12;98.47
14117;BME280;7137;51.436;6.544;2023-05-23T04:22:51;101440.44;;;15.22;98.02
14117;BME280;7137;51.436;6.544;2023-05-23T04:25:52;101438.84;;;15.18;98.88
14117;BME280;7137;51.436;6.544;2023-05-23T04:28:54;101439.53;;;15.23;98.99
14117;BME280;7137;51.436;6.544;2023-05-23T04:31:57;101440.06;;;15.09;99.46
14117;BME280;7137;51.436;6.544;2023-05-23T04:34:58;101444.34;;;15.11;99.47
14117;BME280;7137;51.436;6.544;2023-05-23T04:38:01;101452.84;;;15.18;99.40
14117;BME280;7137;51.436;6.544;2023-05-23T04:41:03;101457.31;;;15.16;99.49
14117;BME280;7137;51.436;6.544;2023-05-23T04:44:05;101451.13;;;15.17;99.44
14117;BME280;7137;51.436;6.544;2023-05-23T04:47:10;101454.03;;;15.11;98.80
14117;BME280;7137;51.436;6.544;2023-05-23T04:50:12;101454.63;;;15.18;99.74
14117;BME280;7137;51.436;6.544;2023-05-23T04:53:14;101461.72;;;15.15;98.86
14117;BME280;7137;51.436;6.544;2023-05-23T04:56:16;101459.88;;;15.18;99.70
14117;BME280;7137;51.436;6.544;2023-05-23T04:59:19;101460.25;;;15.08;99.78
14117;BME280;7137;51.436;6.544;2023-05-23T05:02:22;101467.91;;;14.91;100.00
14117;BME280;7137;51.436;6.544;2023-05-23T05:05:26;101459.00;;;14.95;100.00
14117;BME280;7137;51.436;6.544;2023-05-23T05:08:27;101470.09;;;15.03;100.00
14117;BME280;7137;51.436;6.544;2023-05-23T05:11:29;101471.66;;;15.09;98.87
14117;BME280;7137;51.436;6.544;2023-05-23T05:14:30;101480.09;;;15.17;99.61
14117;BME280;7137;51.436;6.544;2023-05-23T05:17:33;101474.94;;;15.14;98.13
14117;BME280;7137;51.436;6.544;2023-05-23T05:20:36;101474.88;;;15.15;99.60
14117;BME280;7137;51.436;6.544;2023-05-23T05:23:38;101483.75;;;15.13;98.45
14117;BME280;7137;51.436;6.544;2023-05-23T05:26:40;101483.03;;;15.09;97.63
14117;BME280;7137;51.436;6.544;2023-05-23T05:29:42;101488.69;;;15.22;98.57
14117;BME280;7137;51.436;6.544;2023-05-23T05:32:45;101496.28;;;15.30;95.55
14117;BME280;7137;51.436;6.544;2023-05-23T05:35:47;101495.06;;;15.38;93.36
14117;BME280;7137;51.436;6.544;2023-05-23T05:38:49;101492.25;;;15.66;91.39
14117;BME280;7137;51.436;6.544;2023-05-23T05:41:50;101505.16;;;15.72;90.49
14117;BME280;7137;51.436;6.544;2023-05-23T05:44:52;101504.69;;;15.63;92.31
14117;BME280;7137;51.436;6.544;2023-05-23T05:47:55;101508.50;;;15.76;91.99
14117;BME280;7137;51.436;6.544;2023-05-23T05:50:56;101519.06;;;15.76;90.97
14117;BME280;7137;51.436;6.544;2023-05-23T05:54:00;101519.44;;;15.67;92.49
14117;BME280;7137;51.436;6.544;2023-05-23T05:57:01;101525.56;;;15.67;93.27
14117;BME280;7137;51.436;6.544;2023-05-23T06:00:04;101522.00;;;15.45;93.48
14117;BME280;7137;51.436;6.544;2023-05-23T06:03:13;101529.84;;;15.47;94.67
14117;BME280;7137;51.436;6.544;2023-05-23T06:06:15;101533.78;;;15.36;93.17
14117;BME280;7137;51.436;6.544;2023-05-23T06:09:17;101530.38;;;15.33;93.26
14117;BME280;7137;51.436;6.544;2023-05-23T06:12:18;101531.19;;;15.35;92.76
14117;BME280;7137;51.436;6.544;2023-05-23T06:15:20;101534.56;;;15.38;91.97
14117;BME280;7137;51.436;6.544;2023-05-23T06:18:23;101525.94;;;15.35;91.76
14117;BME280;7137;51.436;6.544;2023-05-23T06:21:24;101529.47;;;15.34;91.47
14117;BME280;7137;51.436;6.544;2023-05-23T06:24:26;101538.19;;;15.36;93.39
14117;BME280;7137;51.436;6.544;2023-05-23T06:27:28;101541.28;;;15.45;92.01
14117;BME280;7137;51.436;6.544;2023-05-23T06:30:29;101538.94;;;15.63;91.63
14117;BME280;7137;51.436;6.544;2023-05-23T06:33:32;101541.88;;;15.54;92.55
14117;BME280;7137;51.436;6.544;2023-05-23T06:36:34;101537.94;;;15.42;92.60
14117;BME280;7137;51.436;6.544;2023-05-23T06:39:35;101540.16;;;15.53;93.80
14117;BME280;7137;51.436;6.544;2023-05-23T06:42:37;101535.25;;;15.43;92.76
14117;BME280;7137;51.436;6.544;2023-05-23T06:45:38;101536.47;;;15.57;93.35
14117;BME280;7137;51.436;6.544;2023-05-23T06:48:41;101543.75;;;15.73;92.67
14117;BME280;7137;51.436;6.544;2023-05-23T06:51:43;101549.25;;;15.89;92.60
14117;BME280;7137;51.436;6.544;2023-05-23T06:54:44;101550.06;;;15.69;92.84
14117;BME280;7137;51.436;6.544;2023-05-23T06:57:46;101552.88;;;15.65;94.95
14117;BME280;7137;51.436;6.544;2023-05-23T07:00:51;101557.47;;;15.60;93.55
14117;BME280;7137;51.436;6.544;2023-05-23T07:03:54;101567.03;;;15.39;94.48
14117;BME280;7137;51.436;6.544;2023-05-23T07:06:55;101563.63;;;15.12;93.89
14117;BME280;7137;51.436;6.544;2023-05-23T07:09:57;101568.16;;;15.08;94.58
14117;BME280;7137;51.436;6.544;2023-05-23T07:12:58;101570.69;;;14.87;95.05
14117;BME280;7137;51.436;6.544;2023-05-23T07:16:00;101572.19;;;14.94;95.18
14117;BME280;7137;51.436;6.544;2023-05-23T07:19:03;101577.13;;;15.03;95.07
14117;BME280;7137;51.436;6.544;2023-05-23T07:22:04;101581.03;;;14.91;93.68
14117;BME280;7137;51.436;6.544;2023-05-23T07:25:07;101587.88;;;14.97;95.27
14117;BME280;7137;51.436;6.544;2023-05-23T07:28:08;101601.13;;;14.69;94.66
14117;BME280;7137;51.436;6.544;2023-05-23T07:31:10;101594.28;;;14.63;96.03
14117;BME280;7137;51.436;6.544;2023-05-23T07:34:14;101605.25;;;14.51;96.33
14117;BME280;7137;51.436;6.544;2023-05-23T07:37:15;101601.94;;;14.44;97.21
14117;BME280;7137;51.436;6.544;2023-05-23T07:40:17;101615.97;;;14.43;97.83
14117;BME280;7137;51.436;6.544;2023-05-23T07:43:18;101606.34;;;14.44;97.81
14117;BME280;7137;51.436;6.544;2023-05-23T07:46:20;101609.78;;;14.46;97.65
14117;BME280;7137;51.436;6.544;2023-05-23T07:49:23;101613.53;;;14.65;96.83
14117;BME280;7137;51.436;6.544;2023-05-23T07:52:25;101619.66;;;14.91;95.57
14117;BME280;7137;51.436;6.544;2023-05-23T07:55:26;101631.56;;;14.76;93.41
14117;BME280;7137;51.436;6.544;2023-05-23T07:58:28;101632.94;;;14.61;92.93
14117;BME280;7137;51.436;6.544;2023-05-23T08:01:29;101634.13;;;14.52;93.13
14117;BME280;7137;51.436;6.544;2023-05-23T08:04:32;101633.69;;;14.38;93.58
14117;BME280;7137;51.436;6.544;2023-05-23T08:07:35;101632.63;;;14.44;94.52
14117;BME280;7137;51.436;6.544;2023-05-23T08:10:36;101641.50;;;14.40;93.64
14117;BME280;7137;51.436;6.544;2023-05-23T08:13:39;101635.66;;;14.58;93.12
14117;BME280;7137;51.436;6.544;2023-05-23T08:16:40;101648.63;;;14.89;91.41
14117;BME280;7137;51.436;6.544;2023-05-23T08:19:43;101637.16;;;14.92;91.46
14117;BME280;7137;51.436;6.544;2023-05-23T08:22:45;101648.69;;;14.88;91.45
14117;BME280;7137;51.436;6.544;2023-05-23T08:25:46;101646.53;;;14.47;92.67
14117;BME280;7137;51.436;6.544;2023-05-23T08:28:48;101656.91;;;14.52;92.88
14117;BME280;7137;51.436;6.544;2023-05-23T08:31:50;101659.69;;;14.47;93.77
14117;BME280;7137;51.436;6.544;2023-05-23T08:34:53;101665.22;;;14.38;93.05
14117;BME280;7137;51.436;6.544;2023-05-23T08:37:55;101667.28;;;14.29;92.60
14117;BME280;7137;51.436;6.544;2023-05-23T08:41:00;101667.66;;;14.16;94.11
14117;BME280;7137;51.436;6.544;2023-05-23T08:44:02;101673.72;;;14.18;94.63
14117;BME280;7137;51.436;6.544;2023-05-23T08:47:04;101677.50;;;14.10;93.90
14117;BME280;7137;51.436;6.544;2023-05-23T08:50:10;101683.94;;;14.27;92.35
14117;BME280;7137;51.436;6.544;2023-05-23T08:53:14;101689.75;;;14.39;90.51
14117;BME280;7137;51.436;6.544;2023-05-23T08:56:19;101698.91;;;14.25;88.93
14117;BME280;7137;51.436;6.544;2023-05-23T08:59:21;101702.41;;;14.26;87.87
14117;BME280;7137;51.436;6.544;2023-05-23T09:02:23;101708.72;;;14.19;88.06
14117;BME280;7137;51.436;6.544;2023-05-23T09:05:26;101700.03;;;14.17;87.94
14117;BME280;7137;51.436;6.544;2023-05-23T09:08:28;101707.44;;;14.32;87.52
14117;BME280;7137;51.436;6.544;2023-05-23T09:11:29;101716.63;;;14.19;87.74
14117;BME280;7137;51.436;6.544;2023-05-23T09:14:33;101716.41;;;14.26;87.06
14117;BME280;7137;51.436;6.544;2023-05-23T09:17:36;101721.47;;;14.03;85.67
14117;BME280;7137;51.436;6.544;2023-05-23T09:20:44;101722.06;;;14.13;85.28
14117;BME280;7137;51.436;6.544;2023-05-23T09:23:46;101716.94;;;14.38;84.50
14117;BME280;7137;51.436;6.544;2023-05-23T09:26:47;101725.03;;;14.60;84.07
14117;BME280;7137;51.436;6.544;2023-05-23T09:29:49;101726.69;;;14.62;82.88
14117;BME280;7137;51.436;6.544;2023-05-23T09:32:58;101730.81;;;14.71;81.37
14117;BME280;7137;51.436;6.544;2023-05-23T09:36:04;101731.56;;;14.74;81.69
14117;BME280;7137;51.436;6.544;2023-05-23T09:39:05;101738.25;;;15.11;78.96
14117;BME280;7137;51.436;6.544;2023-05-23T09:42:07;101740.44;;;15.50;76.91
14117;BME280;7137;51.436;6.544;2023-05-23T09:45:09;101737.97;;;15.70;76.39
14117;BME280;7137;51.436;6.544;2023-05-23T09:48:11;101737.00;;;15.96;74.44
14117;BME280;7137;51.436;6.544;2023-05-23T09:51:17;101733.63;;;15.92;75.24
14117;BME280;7137;51.436;6.544;2023-05-23T09:54:20;101725.88;;;16.78;70.13
14117;BME280;7137;51.436;6.544;2023-05-23T09:57:22;101726.03;;;18.71;61.70
14117;BME280;7137;51.436;6.544;2023-05-23T10:00:24;101730.09;;;19.65;58.92
14117;BME280;7137;51.436;6.544;2023-05-23T10:03:30;101730.06;;;18.42;60.44
14117;BME280;7137;51.436;6.544;2023-05-23T10:06:40;101727.44;;;17.25;64.98
14117;BME280;7137;51.436;6.544;2023-05-23T10:09:47;101725.19;;;17.15;67.14
14117;BME280;7137;51.436;6.544;2023-05-23T10:12:52;101727.81;;;16.29;67.48
14117;BME280;7137;51.436;6.544;2023-05-23T10:16:00;101727.66;;;16.32;69.27
14117;BME280;7137;51.436;6.544;2023-05-23T10:19:06;101723.44;;;16.07;69.43
14117;BME280;7137;51.436;6.544;2023-05-23T10:22:13;101729.41;;;16.55;69.34
14117;BME280;7137;51.436;6.544;2023-05-23T10:25:15;101733.31;;;16.90;68.61
14117;BME280;7137;51.436;6.544;2023-05-23T10:28:18;101734.91;;;16.73;67.15
14117;BME280;7137;51.436;6.544;2023-05-23T10:31:20;101743.75;;;16.72;65.70
14117;BME280;7137;51.436;6.544;2023-05-23T10:34:28;101733.31;;;16.69;66.99
14117;BME280;7137;51.436;6.544;2023-05-23T10:37:37;101740.19;;;16.73;65.83
14117;BME280;7137;51.436;6.544;2023-05-23T10:40:49;101734.88;;;16.95;65.55
14117;BME280;7137;51.436;6.544;2023-05-23T10:44:01;101741.06;;;17.36;63.38
14117;BME280;7137;51.436;6.544;2023-05-23T10:47:07;101739.72;;;17.26;65.21
14117;BME280;7137;51.436;6.544;2023-05-23T10:50:11;101749.22;;;17.09;64.33
14117;BME280;7137;51.436;6.544;2023-05-23T10:53:15;101761.22;;;17.16;66.71
14117;BME280;7137;51.436;6.544;2023-05-23T10:56:18;101758.34;;;17.23;64.89
14117;BME280;7137;51.436;6.544;2023-05-23T10:59:21;101754.72;;;17.05;63.31
14117;BME280;7137;51.436;6.544;2023-05-23T11:02:25;101758.09;;;17.29;62.47
14117;BME280;7137;51.436;6.544;2023-05-23T11:05:28;101754.38;;;17.53;61.39
14117;BME280;7137;51.436;6.544;2023-05-23T11:08:39;101774.31;;;18.01;61.09
14117;BME280;7137;51.436;6.544;2023-05-23T11:11:52;101764.56;;;17.62;59.98
14117;BME280;7137;51.436;6.544;2023-05-23T11:14:54;101766.94;;;16.85;61.34
14117;BME280;7137;51.436;6.544;2023-05-23T11:17:56;101764.50;;;16.81;63.83
14117;BME280;7137;51.436;6.544;2023-05-23T11:20:58;101780.13;;;16.85;62.56
14117;BME280;7137;51.436;6.544;2023-05-23T11:24:02;101765.84;;;16.91;62.84
14117;BME280;7137;51.436;6.544;2023-05-23T11:27:11;101773.75;;;16.91;61.87
14117;BME280;7137;51.436;6.544;2023-05-23T11:30:14;101770.63;;;17.03;63.18
14117;BME280;7137;51.436;6.544;2023-05-23T11:33:17;101770.50;;;17.27;59.69
14117;BME280;7137;51.436;6.544;2023-05-23T11:36:20;101769.38;;;17.93;59.96
14117;BME280;7137;51.436;6.544;2023-05-23T11:39:23;101770.47;;;18.08;57.17
14117;BME280;7137;51.436;6.544;2023-05-23T11:42:25;101757.31;;;18.25;57.72
14117;BME280;7137;51.436;6.544;2023-05-23T11:45:28;101772.69;;;17.58;54.63
14117;BME280;7137;51.436;6.544;2023-05-23T11:48:30;101771.56;;;17.84;56.66
14117;BME280;7137;51.436;6.544;2023-05-23T11:51:32;101772.63;;;18.37;52.03
14117;BME280;7137;51.436;6.544;2023-05-23T11:54:35;101774.41;;;17.79;54.33
14117;BME280;7137;51.436;6.544;2023-05-23T11:57:37;101774.03;;;18.26;55.08
14117;BME280;7137;51.436;6.544;2023-05-23T12:00:42;101779.59;;;18.57;55.71
14117;BME280;7137;51.436;6.544;2023-05-23T12:03:45;101781.75;;;17.93;52.48
14117;BME280;7137;51.436;6.544;2023-05-23T12:06:47;101777.69;;;18.42;53.60
14117;BME280;7137;51.436;6.544;2023-05-23T12:09:54;101784.09;;;18.55;51.26
14117;BME280;7137;51.436;6.544;2023-05-23T12:12:56;101782.63;;;18.50;51.90
14117;BME280;7137;51.436;6.544;2023-05-23T12:15:59;101766.03;;;18.27;52.43
14117;BME280;7137;51.436;6.544;2023-05-23T12:19:03;101763.50;;;18.43;51.21
14117;BME280;7137;51.436;6.544;2023-05-23T12:22:06;101771.09;;;18.51;50.05
14117;BME280;7137;51.436;6.544;2023-05-23T12:25:09;101775.03;;;18.61;50.56
14117;BME280;7137;51.436;6.544;2023-05-23T12:28:11;101785.91;;;18.36;52.06
14117;BME280;7137;51.436;6.544;2023-05-23T12:31:16;101766.50;;;17.98;51.95
14117;BME280;7137;51.436;6.544;2023-05-23T12:34:21;101781.53;;;17.57;54.68
14117;BME280;7137;51.436;6.544;2023-05-23T12:37:23;101779.03;;;17.54;53.85
14117;BME280;7137;51.436;6.544;2023-05-23T12:40:28;101764.47;;;18.04;53.43
14117;BME280;7137;51.436;6.544;2023-05-23T12:43:29;101764.63;;;17.81;53.13
14117;BME280;7137;51.436;6.544;2023-05-23T12:46:31;101768.78;;;17.87;53.76
14117;BME280;7137;51.436;6.544;2023-05-23T12:49:32;101767.66;;;17.92;53.89
14117;BME280;7137;51.436;6.544;2023-05-23T12:52:34;101769.75;;;18.04;53.85
14117;BME280;7137;51.436;6.544;2023-05-23T12:55:37;101763.31;;;18.29;52.88
14117;BME280;7137;51.436;6.544;2023-05-23T12:58:39;101769.19;;;18.35;52.32
14117;BME280;7137;51.436;6.544;2023-05-23T13:01:41;101771.69;;;18.20;52.72
14117;BME280;7137;51.436;6.544;2023-05-23T13:04:42;101768.91;;;18.96;52.11
14117;BME280;7137;51.436;6.544;2023-05-23T13:07:45;101762.03;;;18.75;49.65
14117;BME280;7137;51.436;6.544;2023-05-23T13:10:48;101760.38;;;18.54;51.85
14117;BME280;7137;51.436;6.544;2023-05-23T13:13:50;101766.38;;;18.01;51.98
14117;BME280;7137;51.436;6.544;2023-05-23T13:16:51;101763.44;;;17.88;52.58
14117;BME280;7137;51.436;6.544;2023-05-23T13:19:53;101769.16;;;17.98;51.48
14117;BME280;7137;51.436;6.544;2023-05-23T13:22:55;101765.03;;;18.11;52.37
14117;BME280;7137;51.436;6.544;2023-05-23T13:25:58;101765.97;;;18.48;51.21
14117;BME280;7137;51.436;6.544;2023-05-23T13:29:00;101767.88;;;18.63;50.12
14117;BME280;7137;51.436;6.544;2023-05-23T13:32:02;101773.59;;;18.54;49.94
14117;BME280;7137;51.436;6.544;2023-05-23T13:35:04;101767.59;;;19.05;48.61
14117;BME280;7137;51.436;6.544;2023-05-23T13:38:06;101769.22;;;18.90;48.97
14117;BME280;7137;51.436;6.544;2023-05-23T13:41:09;101782.63;;;18.68;49.08
14117;BME280;7137;51.436;6.544;2023-05-23T13:44:11;101773.16;;;18.63;49.49
14117;BME280;7137;51.436;6.544;2023-05-23T13:47:13;101778.03;;;18.53;47.36
14117;BME280;7137;51.436;6.544;2023-05-23T13:50:15;101766.38;;;18.38;48.29
14117;BME280;7137;51.436;6.544;2023-05-23T13:53:17;101766.81;;;18.67;49.01
14117;BME280;7137;51.436;6.544;2023-05-23T13:56:20;101769.19;;;18.73;47.02
14117;BME280;7137;51.436;6.544;2023-05-23T13:59:21;101767.41;;;18.74;48.88
14117;BME280;7137;51.436;6.544;2023-05-23T14:02:23;101772.47;;;18.95;47.50
14117;BME280;7137;51.436;6.544;2023-05-23T14:05:26;101769.19;;;18.73;47.91
14117;BME280;7137;51.436;6.544;2023-05-23T14:08:27;101776.25;;;19.09;45.12
14117;BME280;7137;51.436;6.544;2023-05-23T14:11:30;101766.59;;;18.72;45.87
14117;BME280;7137;51.436;6.544;2023-05-23T14:14:32;101765.28;;;18.80;46.81
14117;BME280;7137;51.436;6.544;2023-05-23T14:17:33;101772.03;;;18.87;48.16
14117;BME280;7137;51.436;6.544;2023-05-23T14:20:35;101770.50;;;19.01;47.16
14117;BME280;7137;51.436;6.544;2023-05-23T14:23:36;101770.81;;;18.76;47.22
14117;BME280;7137;51.436;6.544;2023-05-23T14:26:39;101771.28;;;19.20;45.06
14117;BME280;7137;51.436;6.544;2023-05-23T14:29:41;101767.19;;;18.95;45.13
14117;BME280;7137;51.436;6.544;2023-05-23T14:32:45;101772.81;;;18.71;45.52
14117;BME280;7137;51.436;6.544;2023-05-23T14:35:48;101772.38;;;18.80;45.07
14117;BME280;7137;51.436;6.544;2023-05-23T14:38:49;101776.28;;;18.73;47.15
14117;BME280;7137;51.436;6.544;2023-05-23T14:41:52;101781.75;;;18.87;46.91
14117;BME280;7137;51.436;6.544;2023-05-23T14:44:54;101786.28;;;18.66;45.87
14117;BME280;7137;51.436;6.544;2023-05-23T14:47:55;101783.78;;;18.44;45.96
14117;BME280;7137;51.436;6.544;2023-05-23T14:50:57;101787.91;;;18.50;46.37
14117;BME280;7137;51.436;6.544;2023-05-23T14:54:00;101772.78;;;18.72;45.86
14117;BME280;7137;51.436;6.544;2023-05-23T14:57:04;101770.59;;;18.43;44.91
14117;BME280;7137;51.436;6.544;2023-05-23T15:00:07;101776.69;;;18.45;45.16
14117;BME280;7137;51.436;6.544;2023-05-23T15:03:09;101771.19;;;18.68;45.45
14117;BME280;7137;51.436;6.544;2023-05-23T15:06:10;101776.03;;;18.77;44.65
14117;BME280;7137;51.436;6.544;2023-05-23T15:09:12;101779.78;;;18.17;47.43
14117;BME280;7137;51.436;6.544;2023-05-23T15:12:15;101775.09;;;18.40;48.53
14117;BME280;7137;51.436;6.544;2023-05-23T15:15:16;101772.63;;;18.37;49.55
14117;BME280;7137;51.436;6.544;2023-05-23T15:18:22;101765.28;;;18.80;47.87
14117;BME280;7137;51.436;6.544;2023-05-23T15:21:24;101768.09;;;18.77;47.90
14117;BME280;7137;51.436;6.544;2023-05-23T15:24:25;101774.25;;;18.59;44.65
14117;BME280;7137;51.436;6.544;2023-05-23T15:27:28;101777.81;;;18.39;45.95
14117;BME280;7137;51.436;6.544;2023-05-23T15:30:30;101784.53;;;17.90;46.91
14117;BME280;7137;51.436;6.544;2023-05-23T15:33:31;101777.31;;;17.93;47.83
14117;BME280;7137;51.436;6.544;2023-05-23T15:36:33;101779.44;;;17.65;49.28
14117;BME280;7137;51.436;6.544;2023-05-23T15:39:35;101788.47;;;17.18;50.77
14117;BME280;7137;51.436;6.544;2023-05-23T15:42:38;101778.06;;;17.76;49.89
14117;BME280;7137;51.436;6.544;2023-05-23T15:45:40;101779.19;;;17.71;49.60
14117;BME280;7137;51.436;6.544;2023-05-23T15:48:41;101782.31;;;17.59;49.38
14117;BME280;7137;51.436;6.544;2023-05-23T15:51:43;101780.81;;;17.33;48.65
14117;BME280;7137;51.436;6.544;2023-05-23T15:54:44;101783.91;;;17.42;49.82
14117;BME280;7137;51.436;6.544;2023-05-23T15:57:47;101786.47;;;17.44;50.37
14117;BME280;7137;51.436;6.544;2023-05-23T16:00:49;101781.16;;;17.45;48.35
14117;BME280;7137;51.436;6.544;2023-05-23T16:03:50;101779.00;;;17.13;45.53
14117;BME280;7137;51.436;6.544;2023-05-23T16:06:52;101779.91;;;16.91;45.95
14117;BME280;7137;51.436;6.544;2023-05-23T16:09:53;101775.16;;;17.00;47.49